createdAt,value
2023-03-02T00:00:10.227Z,19.42
2023-03-02T00:01:10.233Z,19.40
2023-03-02T00:02:10.237Z,19.40
2023-03-02T00:03:10.197Z,19.39
2023-03-02T00:04:10.257Z,19.39
2023-03-02T00:05:10.174Z,19.42
2023-03-02T00:06:10.181Z,19.40
2023-03-02T00:07:10.158Z,19.39
2023-03-02T00:08:10.214Z,19.40
2023-03-02T00:09:10.126Z,19.40
2023-03-02T00:10:10.159Z,19.42
2023-03-02T00:11:10.109Z,19.40
2023-03-02T00:12:10.123Z,19.40
2023-03-02T00:13:10.094Z,19.40
2023-03-02T00:14:10.107Z,19.42
2023-03-02T00:15:10.067Z,19.39
2023-03-02T00:16:10.180Z,19.39
2023-03-02T00:17:10.057Z,19.40
2023-03-02T00:18:10.044Z,19.40
2023-03-02T00:19:10.027Z,19.39
2023-03-02T00:20:10.019Z,19.40
2023-03-02T00:21:10.005Z,19.40
2023-03-02T00:22:11.038Z,19.40
2023-03-02T00:23:09.976Z,19.40
2023-03-02T00:24:09.971Z,19.40
2023-03-02T00:25:10.043Z,19.39
2023-03-02T00:26:09.957Z,19.39
2023-03-02T00:27:09.945Z,19.40
2023-03-02T00:28:09.946Z,19.40
2023-03-02T00:29:09.915Z,19.39
2023-03-02T00:30:10.645Z,19.39
2023-03-02T00:31:09.942Z,19.40
2023-03-02T00:32:09.921Z,19.38
2023-03-02T00:33:09.866Z,19.39
2023-03-02T00:34:09.872Z,19.39
2023-03-02T00:35:09.862Z,19.40
2023-03-02T00:36:09.850Z,19.39
2023-03-02T00:37:09.828Z,19.40
2023-03-02T00:38:09.820Z,19.39
2023-03-02T00:39:09.811Z,19.39
2023-03-02T00:40:09.810Z,19.38
2023-03-02T00:41:09.781Z,19.39
2023-03-02T00:42:09.779Z,19.39
2023-03-02T00:43:09.765Z,19.40
2023-03-02T00:44:09.765Z,19.40
2023-03-02T00:45:09.756Z,19.39
2023-03-02T00:46:09.828Z,19.38
2023-03-02T00:47:09.719Z,19.39
2023-03-02T00:48:09.744Z,19.40
2023-03-02T00:49:09.732Z,19.39
2023-03-02T00:50:09.708Z,19.39
2023-03-02T00:51:09.676Z,19.39
2023-03-02T00:52:09.677Z,19.39
2023-03-02T00:53:09.659Z,19.39
2023-03-02T00:54:09.679Z,19.39
2023-03-02T00:55:09.638Z,19.39
2023-03-02T00:56:09.637Z,19.39
2023-03-02T00:57:09.617Z,19.39
2023-03-02T00:58:09.622Z,19.38
2023-03-02T00:59:09.596Z,19.38
2023-03-02T01:00:09.593Z,19.38
2023-03-02T01:01:09.580Z,19.39
2023-03-02T01:02:09.611Z,19.39
2023-03-02T01:03:09.669Z,19.39
2023-03-02T01:04:09.566Z,19.38
2023-03-02T01:05:09.540Z,19.38
2023-03-02T01:06:09.537Z,19.38
2023-03-02T01:07:09.521Z,19.38
2023-03-02T01:08:09.518Z,19.38
2023-03-02T01:09:09.510Z,19.38
2023-03-02T01:10:09.535Z,19.39
2023-03-02T01:11:09.480Z,19.38
2023-03-02T01:12:09.482Z,19.39
2023-03-02T01:13:09.532Z,19.39
2023-03-02T01:14:09.469Z,19.38
2023-03-02T01:15:09.486Z,19.38
2023-03-02T01:16:09.499Z,19.39
2023-03-02T01:17:09.418Z,19.38
2023-03-02T01:18:10.679Z,19.36
2023-03-02T01:19:09.411Z,19.38
2023-03-02T01:20:09.391Z,19.38
2023-03-02T01:21:09.387Z,19.39
2023-03-02T01:22:09.374Z,19.38
2023-03-02T01:23:09.359Z,19.38
2023-03-02T01:24:09.364Z,19.38
2023-03-02T01:25:09.340Z,19.38
2023-03-02T01:26:09.329Z,19.39
2023-03-02T01:27:09.315Z,19.38
2023-03-02T01:28:09.316Z,19.38
2023-03-02T01:29:09.305Z,19.38
2023-03-02T01:30:09.401Z,19.38
2023-03-02T01:31:09.304Z,19.38
2023-03-02T01:32:09.344Z,19.38
2023-03-02T01:33:09.254Z,19.38
2023-03-02T01:34:09.260Z,19.38
2023-03-02T01:35:09.249Z,19.38
2023-03-02T01:36:09.242Z,19.38
2023-03-02T01:37:09.217Z,19.36
2023-03-02T01:38:09.221Z,19.38
2023-03-02T01:39:09.193Z,19.35
2023-03-02T01:40:09.194Z,19.36
2023-03-02T01:41:09.192Z,19.36
2023-03-02T01:42:09.171Z,19.39
2023-03-02T01:43:09.156Z,19.38
2023-03-02T01:44:09.145Z,19.38
2023-03-02T01:45:09.129Z,19.36
2023-03-02T01:46:09.174Z,19.36
2023-03-02T01:47:09.126Z,19.38
2023-03-02T01:48:09.102Z,19.38
2023-03-02T01:49:09.088Z,19.36
2023-03-02T01:50:09.090Z,19.38
2023-03-02T01:51:09.074Z,19.38
2023-03-02T01:52:09.081Z,19.36
2023-03-02T01:53:09.059Z,19.36
2023-03-02T01:54:09.045Z,19.36
2023-03-02T01:55:09.036Z,19.36
2023-03-02T01:56:09.020Z,19.38
2023-03-02T01:57:09.033Z,19.36
2023-03-02T01:58:09.005Z,19.36
2023-03-02T01:59:08.992Z,19.38
2023-03-02T02:00:08.981Z,19.36
2023-03-02T02:01:09.030Z,19.35
2023-03-02T02:02:08.972Z,19.35
2023-03-02T02:03:09.106Z,19.35
2023-03-02T02:04:08.999Z,19.36
2023-03-02T02:05:08.927Z,19.36
2023-03-02T02:06:08.920Z,19.36
2023-03-02T02:07:08.914Z,19.35
2023-03-02T02:08:08.916Z,19.36
2023-03-02T02:09:08.884Z,19.36
2023-03-02T02:10:08.925Z,19.35
2023-03-02T02:11:08.864Z,19.36
2023-03-02T02:12:08.862Z,19.35
2023-03-02T02:13:08.851Z,19.36
2023-03-02T02:14:08.832Z,19.35
2023-03-02T02:15:08.822Z,19.35
2023-03-02T02:16:08.848Z,19.35
2023-03-02T02:17:08.809Z,19.36
2023-03-02T02:18:08.802Z,19.35
2023-03-02T02:19:08.776Z,19.36
2023-03-02T02:20:08.805Z,19.35
2023-03-02T02:21:08.761Z,19.36
2023-03-02T02:22:08.750Z,19.35
2023-03-02T02:23:08.750Z,19.36
2023-03-02T02:24:08.745Z,19.35
2023-03-02T02:25:08.721Z,19.35
2023-03-02T02:26:08.707Z,19.36
2023-03-02T02:27:08.693Z,19.35
2023-03-02T02:28:08.693Z,19.35
2023-03-02T02:29:08.698Z,19.35
2023-03-02T02:30:08.765Z,19.35
2023-03-02T02:31:08.655Z,19.35
2023-03-02T02:32:08.801Z,19.35
2023-03-02T02:33:08.634Z,19.35
2023-03-02T02:34:08.638Z,19.35
2023-03-02T02:35:08.614Z,19.35
2023-03-02T02:36:08.661Z,19.36
2023-03-02T02:37:08.601Z,19.35
2023-03-02T02:38:08.585Z,19.36
2023-03-02T02:39:08.581Z,19.35
2023-03-02T02:40:08.563Z,19.36
2023-03-02T02:41:08.556Z,19.35
2023-03-02T02:42:08.539Z,19.35
2023-03-02T02:43:08.536Z,19.35
2023-03-02T02:44:08.519Z,19.33
2023-03-02T02:45:08.513Z,19.33
2023-03-02T02:46:08.553Z,19.35
2023-03-02T02:47:08.481Z,19.35
2023-03-02T02:48:08.478Z,19.35
2023-03-02T02:49:08.472Z,19.35
2023-03-02T02:50:08.456Z,19.35
2023-03-02T02:51:08.447Z,19.35
2023-03-02T02:52:08.436Z,19.35
2023-03-02T02:53:08.430Z,19.35
2023-03-02T02:54:08.411Z,19.36
2023-03-02T02:55:08.394Z,19.35
2023-03-02T02:56:08.412Z,19.35
2023-03-02T02:57:08.382Z,19.33
2023-03-02T02:58:08.369Z,19.35
2023-03-02T02:59:08.359Z,19.35
2023-03-02T03:00:08.348Z,19.36
2023-03-02T03:01:08.428Z,19.33
2023-03-02T03:02:08.352Z,19.35
2023-03-02T03:03:08.334Z,19.33
2023-03-02T03:04:08.337Z,19.35
2023-03-02T03:05:08.302Z,19.33
2023-03-02T03:06:08.288Z,19.35
2023-03-02T03:07:08.280Z,19.35
2023-03-02T03:08:08.271Z,19.35
2023-03-02T03:09:08.251Z,19.33
2023-03-02T03:10:08.265Z,19.35
2023-03-02T03:11:08.230Z,19.35
2023-03-02T03:12:08.234Z,19.35
2023-03-02T03:13:08.213Z,19.35
2023-03-02T03:14:08.219Z,19.33
2023-03-02T03:15:08.195Z,19.33
2023-03-02T03:16:08.195Z,19.33
2023-03-02T03:17:08.252Z,19.35
2023-03-02T03:18:08.164Z,19.35
2023-03-02T03:19:08.158Z,19.35
2023-03-02T03:20:08.142Z,19.33
2023-03-02T03:21:08.125Z,19.33
2023-03-02T03:22:08.122Z,19.35
2023-03-02T03:23:08.103Z,19.33
2023-03-02T03:24:08.110Z,19.35
2023-03-02T03:25:08.129Z,19.33
2023-03-02T03:26:08.116Z,19.33
2023-03-02T03:27:08.077Z,19.35
2023-03-02T03:28:08.056Z,19.33
2023-03-02T03:29:08.039Z,19.35
2023-03-02T03:30:08.117Z,19.33
2023-03-02T03:31:08.130Z,19.33
2023-03-02T03:32:08.094Z,19.33
2023-03-02T03:33:07.998Z,19.35
2023-03-02T03:34:08.006Z,19.33
2023-03-02T03:35:07.979Z,19.33
2023-03-02T03:36:07.985Z,19.33
2023-03-02T03:37:07.965Z,19.33
2023-03-02T03:38:07.961Z,19.33
2023-03-02T03:39:07.934Z,19.33
2023-03-02T03:40:07.928Z,19.33
2023-03-02T03:41:07.923Z,19.33
2023-03-02T03:42:07.908Z,19.33
2023-03-02T03:43:07.921Z,19.32
2023-03-02T03:44:07.878Z,19.33
2023-03-02T03:45:07.882Z,19.35
2023-03-02T03:46:07.894Z,19.33
2023-03-02T03:47:07.856Z,19.33
2023-03-02T03:48:07.851Z,19.35
2023-03-02T03:49:07.833Z,19.33
2023-03-02T03:50:07.817Z,19.33
2023-03-02T03:51:07.810Z,19.33
2023-03-02T03:52:07.826Z,19.32
2023-03-02T03:53:07.807Z,19.33
2023-03-02T03:54:07.776Z,19.33
2023-03-02T03:55:07.960Z,19.33
2023-03-02T03:56:07.758Z,19.33
2023-03-02T03:57:07.757Z,19.33
2023-03-02T03:58:07.806Z,19.32
2023-03-02T03:59:07.745Z,19.33
2023-03-02T04:00:07.711Z,19.32
2023-03-02T04:01:07.806Z,19.33
2023-03-02T04:02:07.699Z,19.33
2023-03-02T04:03:07.695Z,19.32
2023-03-02T04:04:07.674Z,19.33
2023-03-02T04:05:07.661Z,19.32
2023-03-02T04:06:07.647Z,19.33
2023-03-02T04:07:07.646Z,19.32
2023-03-02T04:08:07.637Z,19.33
2023-03-02T04:09:07.642Z,19.32
2023-03-02T04:10:07.621Z,19.32
2023-03-02T04:11:07.601Z,19.32
2023-03-02T04:12:07.600Z,19.33
2023-03-02T04:13:07.594Z,19.32
2023-03-02T04:14:07.566Z,19.33
2023-03-02T04:15:07.559Z,19.32
2023-03-02T04:16:07.577Z,19.32
2023-03-02T04:17:07.539Z,19.32
2023-03-02T04:18:07.529Z,19.33
2023-03-02T04:19:07.519Z,19.33
2023-03-02T04:20:07.498Z,19.32
2023-03-02T04:21:07.493Z,19.32
2023-03-02T04:22:07.484Z,19.32
2023-03-02T04:23:07.480Z,19.31
2023-03-02T04:24:07.459Z,19.32
2023-03-02T04:25:07.456Z,19.33
2023-03-02T04:26:07.450Z,19.32
2023-03-02T04:27:07.431Z,19.31
2023-03-02T04:28:07.420Z,19.32
2023-03-02T04:29:07.418Z,19.32
2023-03-02T04:30:07.486Z,19.31
2023-03-02T04:31:07.459Z,19.33
2023-03-02T04:32:07.477Z,19.31
2023-03-02T04:33:07.377Z,19.32
2023-03-02T04:34:07.369Z,19.33
2023-03-02T04:35:07.361Z,19.32
2023-03-02T04:36:07.356Z,19.32
2023-03-02T04:37:07.351Z,19.32
2023-03-02T04:38:07.326Z,19.31
2023-03-02T04:39:07.341Z,19.32
2023-03-02T04:40:07.309Z,19.31
2023-03-02T04:41:07.305Z,19.31
2023-03-02T04:42:07.287Z,19.31
2023-03-02T04:43:07.287Z,19.31
2023-03-02T04:44:07.284Z,19.31
2023-03-02T04:45:07.274Z,19.31
2023-03-02T04:46:07.294Z,19.32
2023-03-02T04:47:07.249Z,19.32
2023-03-02T04:48:07.235Z,19.32
2023-03-02T04:49:07.236Z,19.32
2023-03-02T04:50:07.216Z,19.33
2023-03-02T04:51:07.205Z,19.33
2023-03-02T04:52:07.184Z,19.33
2023-03-02T04:53:07.189Z,19.33
2023-03-02T04:54:07.164Z,19.35
2023-03-02T04:55:07.160Z,19.38
2023-03-02T04:56:07.143Z,19.35
2023-03-02T04:57:07.149Z,19.38
2023-03-02T04:58:07.135Z,19.39
2023-03-02T04:59:07.118Z,19.39
2023-03-02T05:00:07.111Z,19.40
2023-03-02T05:01:07.110Z,19.40
2023-03-02T05:02:07.133Z,19.40
2023-03-02T05:03:07.075Z,19.40
2023-03-02T05:04:07.080Z,19.42
2023-03-02T05:05:07.058Z,19.43
2023-03-02T05:06:07.044Z,19.46
2023-03-02T05:07:07.071Z,19.43
2023-03-02T05:08:07.021Z,19.43
2023-03-02T05:09:07.014Z,19.46
2023-03-02T05:10:06.998Z,19.46
2023-03-02T05:11:07.100Z,19.47
2023-03-02T05:12:06.986Z,19.47
2023-03-02T05:13:06.973Z,19.47
2023-03-02T05:14:06.986Z,19.47
2023-03-02T05:15:06.951Z,19.48
2023-03-02T05:16:06.983Z,19.47
2023-03-02T05:17:06.933Z,19.48
2023-03-02T05:18:06.916Z,19.47
2023-03-02T05:19:06.933Z,19.47
2023-03-02T05:20:06.896Z,19.46
2023-03-02T05:21:06.892Z,19.48
2023-03-02T05:22:06.884Z,19.47
2023-03-02T05:23:06.870Z,19.47
2023-03-02T05:24:06.861Z,19.43
2023-03-02T05:25:06.886Z,19.46
2023-03-02T05:26:06.842Z,19.47
2023-03-02T05:27:06.848Z,19.46
2023-03-02T05:28:06.828Z,19.46
2023-03-02T05:29:06.809Z,19.46
2023-03-02T05:30:06.816Z,19.46
2023-03-02T05:31:06.832Z,19.46
2023-03-02T05:32:06.833Z,19.43
2023-03-02T05:33:06.777Z,19.43
2023-03-02T05:34:06.762Z,19.46
2023-03-02T05:35:06.753Z,19.43
2023-03-02T05:36:06.755Z,19.43
2023-03-02T05:37:06.739Z,19.43
2023-03-02T05:38:06.732Z,19.43
2023-03-02T05:39:06.724Z,19.43
2023-03-02T05:40:06.690Z,19.43
2023-03-02T05:41:06.701Z,19.42
2023-03-02T05:42:06.676Z,19.43
2023-03-02T05:43:06.667Z,19.42
2023-03-02T05:44:06.665Z,19.43
2023-03-02T05:45:06.643Z,19.42
2023-03-02T05:46:06.628Z,19.42
2023-03-02T05:47:06.674Z,19.42
2023-03-02T05:48:06.618Z,19.42
2023-03-02T05:49:06.616Z,19.42
2023-03-02T05:50:06.587Z,19.42
2023-03-02T05:51:06.594Z,19.43
2023-03-02T05:52:06.584Z,19.42
2023-03-02T05:53:06.572Z,19.42
2023-03-02T05:54:06.565Z,19.43
2023-03-02T05:55:06.544Z,19.42
2023-03-02T05:56:06.530Z,19.42
2023-03-02T05:57:06.532Z,19.42
2023-03-02T05:58:06.508Z,19.43
2023-03-02T05:59:06.496Z,19.42
2023-03-02T06:00:06.494Z,19.43
2023-03-02T06:01:06.486Z,19.43
2023-03-02T06:02:06.504Z,19.43
2023-03-02T06:03:06.528Z,19.43
2023-03-02T06:04:06.457Z,19.43
2023-03-02T06:05:06.446Z,19.46
2023-03-02T06:06:06.420Z,19.43
2023-03-02T06:07:06.434Z,19.46
2023-03-02T06:08:06.419Z,19.46
2023-03-02T06:09:06.399Z,19.46
2023-03-02T06:10:06.402Z,19.46
2023-03-02T06:11:06.373Z,19.46
2023-03-02T06:12:06.369Z,19.46
2023-03-02T06:13:06.374Z,19.47
2023-03-02T06:14:06.347Z,19.47
2023-03-02T06:15:06.337Z,19.47
2023-03-02T06:16:06.426Z,19.47
2023-03-02T06:17:06.315Z,19.47
2023-03-02T06:18:06.301Z,19.47
2023-03-02T06:19:06.315Z,19.48
2023-03-02T06:20:06.290Z,19.48
2023-03-02T06:21:06.283Z,19.47
2023-03-02T06:22:06.259Z,19.48
2023-03-02T06:23:06.251Z,19.48
2023-03-02T06:24:06.242Z,19.48
2023-03-02T06:25:06.231Z,19.48
2023-03-02T06:26:06.246Z,19.48
2023-03-02T06:27:06.226Z,19.50
2023-03-02T06:28:06.199Z,19.48
2023-03-02T06:29:06.196Z,19.50
2023-03-02T06:30:06.192Z,19.50
2023-03-02T06:31:06.177Z,19.50
2023-03-02T06:32:06.292Z,19.48
2023-03-02T06:33:06.150Z,19.50
2023-03-02T06:34:06.135Z,19.50
2023-03-02T06:35:06.178Z,19.48
2023-03-02T06:36:06.291Z,19.48
2023-03-02T06:37:06.108Z,19.48
2023-03-02T06:38:06.657Z,19.50
2023-03-02T06:39:06.090Z,19.48
2023-03-02T06:40:06.087Z,19.48
2023-03-02T06:41:06.094Z,19.51
2023-03-02T06:42:06.051Z,19.48
2023-03-02T06:43:06.069Z,19.48
2023-03-02T06:44:06.034Z,19.48
2023-03-02T06:45:06.055Z,19.50
2023-03-02T06:46:06.167Z,19.47
2023-03-02T06:47:06.007Z,19.46
2023-03-02T06:48:05.998Z,19.48
2023-03-02T06:49:05.989Z,19.47
2023-03-02T06:50:06.018Z,19.47
2023-03-02T06:51:06.125Z,19.46
2023-03-02T06:52:05.952Z,19.47
2023-03-02T06:53:05.941Z,19.47
2023-03-02T06:54:05.933Z,19.47
2023-03-02T06:55:05.942Z,19.47
2023-03-02T06:56:05.918Z,19.46
2023-03-02T06:57:05.899Z,19.47
2023-03-02T06:58:05.884Z,19.47
2023-03-02T06:59:05.880Z,19.43
2023-03-02T07:00:05.866Z,19.43
2023-03-02T07:01:06.079Z,19.43
2023-03-02T07:02:05.861Z,19.43
2023-03-02T07:03:05.847Z,19.46
2023-03-02T07:04:05.926Z,19.46
2023-03-02T07:05:05.810Z,19.43
2023-03-02T07:06:05.810Z,19.43
2023-03-02T07:07:05.807Z,19.42
2023-03-02T07:08:05.782Z,19.43
2023-03-02T07:09:05.775Z,19.43
2023-03-02T07:10:05.758Z,19.42
2023-03-02T07:11:05.762Z,19.43
2023-03-02T07:12:05.734Z,19.43
2023-03-02T07:13:08.021Z,19.46
2023-03-02T07:14:05.716Z,19.43
2023-03-02T07:15:05.710Z,19.43
2023-03-02T07:16:05.696Z,19.42
2023-03-02T07:17:05.724Z,19.42
2023-03-02T07:18:05.671Z,19.43
2023-03-02T07:19:11.655Z,19.42
2023-03-02T07:20:05.656Z,19.43
2023-03-02T07:21:05.643Z,19.42
2023-03-02T07:22:05.658Z,19.43
2023-03-02T07:23:05.658Z,19.43
2023-03-02T07:24:05.611Z,19.40
2023-03-02T07:25:05.608Z,19.46
2023-03-02T07:26:05.586Z,19.43
2023-03-02T07:27:05.581Z,19.43
2023-03-02T07:28:05.537Z,19.43
2023-03-02T07:29:05.580Z,19.43
2023-03-02T07:30:05.563Z,19.42
2023-03-02T07:31:05.627Z,19.46
2023-03-02T07:32:05.550Z,19.42
2023-03-02T07:33:05.536Z,19.43
2023-03-02T07:34:05.516Z,19.46
2023-03-02T07:35:05.521Z,19.43
2023-03-02T07:36:05.555Z,19.43
2023-03-02T07:37:05.477Z,19.46
2023-03-02T07:38:05.463Z,19.46
2023-03-02T07:39:05.460Z,19.46
2023-03-02T07:40:05.461Z,19.43
2023-03-02T07:41:05.431Z,19.46
2023-03-02T07:42:05.431Z,19.43
2023-03-02T07:43:06.182Z,19.43
2023-03-02T07:44:05.411Z,19.43
2023-03-02T07:45:05.416Z,19.46
2023-03-02T07:46:05.677Z,19.46
2023-03-02T07:47:05.383Z,19.43
2023-03-02T07:48:05.389Z,19.46
2023-03-02T07:49:05.355Z,19.43
2023-03-02T07:50:05.361Z,19.43
2023-03-02T07:51:05.331Z,19.43
2023-03-02T07:52:05.333Z,19.43
2023-03-02T07:53:05.323Z,19.43
2023-03-02T07:54:05.331Z,19.43
2023-03-02T07:55:05.314Z,19.43
2023-03-02T07:56:05.385Z,19.43
2023-03-02T07:57:05.270Z,19.46
2023-03-02T07:58:05.263Z,19.43
2023-03-02T07:59:05.257Z,19.42
2023-03-02T08:00:05.255Z,19.43
2023-03-02T08:01:05.233Z,19.43
2023-03-02T08:02:05.266Z,19.43
2023-03-02T08:03:05.295Z,19.43
2023-03-02T08:04:05.205Z,19.46
2023-03-02T08:05:05.202Z,19.43
2023-03-02T08:06:05.183Z,19.43
2023-03-02T08:07:05.171Z,19.46
2023-03-02T08:08:05.165Z,19.43
2023-03-02T08:09:05.160Z,19.46
2023-03-02T08:10:05.144Z,19.46
2023-03-02T08:11:05.128Z,19.46
2023-03-02T08:12:05.128Z,19.47
2023-03-02T08:13:05.109Z,19.47
2023-03-02T08:14:05.111Z,19.47
2023-03-02T08:15:05.296Z,19.47
2023-03-02T08:16:05.140Z,19.47
2023-03-02T08:17:05.067Z,19.48
2023-03-02T08:18:05.058Z,19.48
2023-03-02T08:19:05.055Z,19.47
2023-03-02T08:20:05.060Z,19.47
2023-03-02T08:21:05.028Z,19.48
2023-03-02T08:22:05.022Z,19.50
2023-03-02T08:23:05.007Z,19.50
2023-03-02T08:24:05.002Z,19.48
2023-03-02T08:25:04.995Z,19.48
2023-03-02T08:26:04.986Z,19.50
2023-03-02T08:27:05.068Z,19.48
2023-03-02T08:28:04.969Z,19.50
2023-03-02T08:29:04.937Z,19.50
2023-03-02T08:30:05.005Z,19.50
2023-03-02T08:31:04.938Z,19.50
2023-03-02T08:32:05.070Z,19.48
2023-03-02T08:33:07.017Z,19.48
2023-03-02T08:34:04.905Z,19.50
2023-03-02T08:35:04.924Z,19.48
2023-03-02T08:36:04.930Z,19.48
2023-03-02T08:37:04.865Z,19.50
2023-03-02T08:38:04.887Z,19.48
2023-03-02T08:39:04.847Z,19.48
2023-03-02T08:40:04.832Z,19.48
2023-03-02T08:41:04.780Z,19.48
2023-03-02T08:42:04.768Z,19.47
2023-03-02T08:43:06.743Z,19.46
2023-03-02T08:44:04.790Z,19.47
2023-03-02T08:45:04.732Z,19.46
2023-03-02T08:46:04.760Z,19.46
2023-03-02T08:47:04.708Z,19.46
2023-03-02T08:48:04.703Z,19.43
2023-03-02T08:49:04.700Z,19.43
2023-03-02T08:50:04.678Z,19.46
2023-03-02T08:51:04.651Z,19.46
2023-03-02T08:52:04.649Z,19.46
2023-03-02T08:53:04.640Z,19.46
2023-03-02T08:54:04.620Z,19.46
2023-03-02T08:55:04.709Z,19.47
2023-03-02T08:56:04.603Z,19.48
2023-03-02T08:57:04.590Z,19.47
2023-03-02T08:58:04.583Z,19.47
2023-03-02T08:59:04.573Z,19.48
2023-03-02T09:00:04.566Z,19.48
2023-03-02T09:01:04.573Z,19.50
2023-03-02T09:02:04.543Z,19.50
2023-03-02T09:03:04.525Z,19.48
2023-03-02T09:04:04.614Z,19.51
2023-03-02T09:05:04.509Z,19.53
2023-03-02T09:06:04.498Z,19.53
2023-03-02T09:07:04.492Z,19.51
2023-03-02T09:08:04.489Z,19.51
2023-03-02T09:09:04.466Z,19.54
2023-03-02T09:10:05.399Z,19.50
2023-03-02T09:11:04.468Z,19.48
2023-03-02T09:12:04.460Z,19.47
2023-03-02T09:13:06.011Z,19.47
2023-03-02T09:14:04.437Z,19.46
2023-03-02T09:15:04.403Z,19.47
2023-03-02T09:16:04.403Z,19.43
2023-03-02T09:17:04.384Z,19.47
2023-03-02T09:18:04.380Z,19.47
2023-03-02T09:19:04.365Z,19.47
2023-03-02T09:20:04.364Z,19.47
2023-03-02T09:21:04.344Z,19.48
2023-03-02T09:22:04.344Z,19.50
2023-03-02T09:23:04.329Z,19.50
2023-03-02T09:24:04.315Z,19.50
2023-03-02T09:25:04.303Z,19.51
2023-03-02T09:26:04.285Z,19.51
2023-03-02T09:27:04.304Z,19.53
2023-03-02T09:28:04.269Z,19.54
2023-03-02T09:29:04.257Z,19.55
2023-03-02T09:30:04.287Z,19.55
2023-03-02T09:31:04.253Z,19.55
2023-03-02T09:32:04.369Z,19.55
2023-03-02T09:33:04.284Z,19.57
2023-03-02T09:34:04.210Z,19.58
2023-03-02T09:35:04.221Z,19.58
2023-03-02T09:36:04.197Z,19.57
2023-03-02T09:37:04.180Z,19.58
2023-03-02T09:38:04.196Z,19.58
2023-03-02T09:39:04.148Z,19.60
2023-03-02T09:40:04.184Z,19.61
2023-03-02T09:41:04.132Z,19.61
2023-03-02T09:42:04.114Z,19.61
2023-03-02T09:43:04.107Z,19.61
2023-03-02T09:44:04.110Z,19.60
2023-03-02T09:45:04.096Z,19.65
2023-03-02T09:46:04.179Z,19.61
2023-03-02T09:47:04.060Z,19.63
2023-03-02T09:48:04.059Z,19.63
2023-03-02T09:49:04.227Z,19.63
2023-03-02T09:50:04.033Z,19.63
2023-03-02T09:51:04.182Z,19.65
2023-03-02T09:52:04.016Z,19.65
2023-03-02T09:53:04.626Z,19.63
2023-03-02T09:54:04.000Z,19.65
2023-03-02T09:55:04.023Z,19.65
2023-03-02T09:56:04.025Z,19.65
2023-03-02T09:57:04.017Z,19.65
2023-03-02T09:58:04.029Z,19.65
2023-03-02T09:59:03.984Z,19.63
2023-03-02T10:00:17.736Z,19.65
2023-03-02T10:01:03.979Z,19.63
2023-03-02T10:02:03.965Z,19.63
2023-03-02T10:03:16.287Z,19.63
2023-03-02T10:04:04.018Z,19.63
2023-03-02T10:05:03.927Z,19.65
2023-03-02T10:06:03.906Z,19.65
2023-03-02T10:07:03.894Z,19.63
2023-03-02T10:08:03.901Z,19.63
2023-03-02T10:09:03.970Z,19.63
2023-03-02T10:10:03.904Z,19.63
2023-03-02T10:11:03.854Z,19.63
2023-03-02T10:12:03.846Z,19.61
2023-03-02T10:13:03.858Z,19.61
2023-03-02T10:14:04.797Z,19.61
2023-03-02T10:15:03.820Z,19.60
2023-03-02T10:16:03.893Z,19.58
2023-03-02T10:17:03.788Z,19.60
2023-03-02T10:18:03.794Z,19.61
2023-03-02T10:19:05.429Z,19.60
2023-03-02T10:20:03.768Z,19.60
2023-03-02T10:21:03.757Z,19.58
2023-03-02T10:22:03.744Z,19.58
2023-03-02T10:23:03.726Z,19.60
2023-03-02T10:24:03.719Z,19.58
2023-03-02T10:25:03.708Z,19.58
2023-03-02T10:26:03.702Z,19.57
2023-03-02T10:27:03.708Z,19.57
2023-03-02T10:28:03.686Z,19.57
2023-03-02T10:29:03.668Z,19.58
2023-03-02T10:30:03.667Z,19.55
2023-03-02T10:31:05.235Z,19.57
2023-03-02T10:32:03.700Z,19.55
2023-03-02T10:33:03.636Z,19.55
2023-03-02T10:34:03.624Z,19.55
2023-03-02T10:35:03.604Z,19.55
2023-03-02T10:36:03.594Z,19.55
2023-03-02T10:37:03.598Z,19.55
2023-03-02T10:38:03.582Z,19.54
2023-03-02T10:39:03.574Z,19.54
2023-03-02T10:40:03.583Z,19.55
2023-03-02T10:41:03.544Z,19.51
2023-03-02T10:42:03.590Z,19.55
2023-03-02T10:43:03.596Z,19.53
2023-03-02T10:44:03.514Z,19.53
2023-03-02T10:45:03.513Z,19.54
2023-03-02T10:46:03.544Z,19.54
2023-03-02T10:47:03.495Z,19.53
2023-03-02T10:48:03.497Z,19.53
2023-03-02T10:49:03.452Z,19.54
2023-03-02T10:50:03.449Z,19.53
2023-03-02T10:51:03.439Z,19.53
2023-03-02T10:52:03.431Z,19.53
2023-03-02T10:53:05.191Z,19.53
2023-03-02T10:54:03.352Z,19.54
2023-03-02T10:55:03.396Z,19.54
2023-03-02T10:56:03.398Z,19.53
2023-03-02T10:57:03.383Z,19.53
2023-03-02T10:58:03.385Z,19.54
2023-03-02T10:59:03.351Z,19.54
2023-03-02T11:00:03.292Z,19.54
2023-03-02T11:01:03.345Z,19.54
2023-03-02T11:02:03.280Z,19.53
2023-03-02T11:03:03.313Z,19.53
2023-03-02T11:04:03.456Z,19.54
2023-03-02T11:05:03.380Z,19.54
2023-03-02T11:06:03.228Z,19.53
2023-03-02T11:07:03.263Z,19.54
2023-03-02T11:08:03.254Z,19.54
2023-03-02T11:09:03.255Z,19.53
2023-03-02T11:10:03.263Z,19.53
2023-03-02T11:11:03.252Z,19.53
2023-03-02T11:12:03.265Z,19.54
2023-03-02T11:13:03.202Z,19.54
2023-03-02T11:14:03.188Z,19.53
2023-03-02T11:15:03.182Z,19.53
2023-03-02T11:16:03.274Z,19.54
2023-03-02T11:17:03.615Z,19.55
2023-03-02T11:18:03.152Z,19.54
2023-03-02T11:19:03.144Z,19.53
2023-03-02T11:20:03.150Z,19.54
2023-03-02T11:21:03.072Z,19.55
2023-03-02T11:22:03.117Z,19.54
2023-03-02T11:23:03.097Z,19.54
2023-03-02T11:24:03.092Z,19.54
2023-03-02T11:25:03.080Z,19.55
2023-03-02T11:26:03.113Z,19.54
2023-03-02T11:27:24.074Z,19.53
2023-03-02T11:28:03.041Z,19.54
2023-03-02T11:29:03.038Z,19.54
2023-03-02T11:30:03.042Z,19.54
2023-03-02T11:31:03.031Z,19.53
2023-03-02T11:32:03.111Z,19.53
2023-03-02T11:33:03.002Z,19.53
2023-03-02T11:34:11.583Z,19.53
2023-03-02T11:35:02.997Z,19.53
2023-03-02T11:36:02.989Z,19.53
2023-03-02T11:37:02.945Z,19.53
2023-03-02T11:38:02.937Z,19.51
2023-03-02T11:39:02.918Z,19.51
2023-03-02T11:40:02.913Z,19.51
2023-03-02T11:41:02.906Z,19.51
2023-03-02T11:42:02.954Z,19.50
2023-03-02T11:43:02.883Z,19.51
2023-03-02T11:44:02.874Z,19.53
2023-03-02T11:45:02.850Z,19.51
2023-03-02T11:46:06.684Z,19.51
2023-03-02T11:47:02.926Z,19.50
2023-03-02T11:48:03.813Z,19.50
2023-03-02T11:49:02.817Z,19.47
2023-03-02T11:50:02.830Z,19.48
2023-03-02T11:51:02.809Z,19.50
2023-03-02T11:52:02.799Z,19.48
2023-03-02T11:53:02.775Z,19.48
2023-03-02T11:54:02.918Z,19.48
2023-03-02T11:55:02.790Z,19.47
2023-03-02T11:56:02.747Z,19.48
2023-03-02T11:57:02.746Z,19.47
2023-03-02T11:58:02.891Z,19.48
2023-03-02T11:59:02.712Z,19.47
2023-03-02T12:00:02.714Z,19.47
2023-03-02T12:01:02.692Z,19.48
2023-03-02T12:02:02.761Z,19.47
2023-03-02T12:03:02.699Z,19.48
2023-03-02T12:04:02.687Z,19.47
2023-03-02T12:05:02.758Z,19.47
2023-03-02T12:06:04.551Z,19.47
2023-03-02T12:07:02.647Z,19.47
2023-03-02T12:08:02.656Z,19.47
2023-03-02T12:09:02.637Z,19.46
2023-03-02T12:10:02.607Z,19.47
2023-03-02T12:11:02.633Z,19.48
2023-03-02T12:12:03.488Z,19.47
2023-03-02T12:13:02.580Z,19.48
2023-03-02T12:14:02.581Z,19.48
2023-03-02T12:15:02.546Z,19.48
2023-03-02T12:16:02.625Z,19.47
2023-03-02T12:17:02.532Z,19.47
2023-03-02T12:18:02.554Z,19.47
2023-03-02T12:19:02.523Z,19.48
2023-03-02T12:20:02.504Z,19.48
2023-03-02T12:21:02.488Z,19.47
2023-03-02T12:22:02.485Z,19.47
2023-03-02T12:23:02.472Z,19.47
2023-03-02T12:24:02.473Z,19.47
2023-03-02T12:25:02.440Z,19.47
2023-03-02T12:26:02.435Z,19.47
2023-03-02T12:27:02.425Z,19.47
2023-03-02T12:28:02.427Z,19.47
2023-03-02T12:29:02.409Z,19.46
2023-03-02T12:30:02.412Z,19.46
2023-03-02T12:31:02.377Z,19.47
2023-03-02T12:32:02.627Z,19.47
2023-03-02T12:33:02.392Z,19.46
2023-03-02T12:34:02.367Z,19.46
2023-03-02T12:35:02.344Z,19.46
2023-03-02T12:36:02.351Z,19.47
2023-03-02T12:37:02.357Z,19.46
2023-03-02T12:38:02.428Z,19.47
2023-03-02T12:39:02.242Z,19.46
2023-03-02T12:40:03.146Z,19.46
2023-03-02T12:41:02.285Z,19.47
2023-03-02T12:42:02.297Z,19.47
2023-03-02T12:43:02.283Z,19.47
2023-03-02T12:44:02.320Z,19.47
2023-03-02T12:45:02.285Z,19.47
2023-03-02T12:46:02.330Z,19.47
2023-03-02T12:47:03.948Z,19.48
2023-03-02T12:48:02.565Z,19.47
2023-03-02T12:49:02.686Z,19.48
2023-03-02T12:50:02.197Z,19.50
2023-03-02T12:51:02.212Z,19.50
2023-03-02T12:52:02.222Z,19.50